Flight Track Log - Related Links

Times and Time Zones

All times are in EDT time to prevent confusion due to time zone crossing. See the CTL21 flight status page for this flight to view local times or setup timezone preferences in your user account.


Time Position Orientation Groundspeed Altitude Reporting Facility
EDT Latitude Longitude Course Direction KTS MPH feet Rate Location/Type
Fri 04:55:20 PM 42.8056 -85.4828 180° South 148 170 3,000  Level Chicago Center
Fri 04:56:22 PM 42.7464 -85.4894 185° South 170 196 3,000  Level Chicago Center
Fri 04:57:24 PM 42.6972 -85.4947 185° South 176 203 3,000 48 Level Chicago Center
Fri 04:58:26 PM 42.6486 -85.5006 185° South 176 203 3,100  Climbing Chicago Center
Fri 04:59:00 PM 42.6337 -85.5339 182° South  Level Estimated
Fri 04:59:28 PM 42.5992 -85.5069 185° South 178 205 3,000  Level Chicago Center
Fri 05:00:00 PM 42.5924 -85.5337 180° South  Level FlightAware Approximate
Fri 05:00:30 PM 42.5506 -85.5125 185° South 176 203 3,000  Level Chicago Center
Fri 05:01:32 PM 42.5019 -85.5183 185° South 175 201 3,000  Level Chicago Center
Fri 05:02:34 PM 42.4450 -85.5242 184° South 173 199 3,000  Level Chicago Center
Fri 05:03:37 PM 42.3978 -85.5178 174° South 171 197 3,000  Level Chicago Center
Fri 05:04:39 PM 42.3508 -85.5114 174° South 170 196 3,000  Level Chicago Center
Fri 05:05:41 PM 42.3036 -85.5056 175° South 169 194 3,000  Level Chicago Center
Fri 05:06:43 PM 42.2519 -85.4997 175° South 169 194 3,000  Level Chicago Center
Fri 05:07:45 PM 42.2061 -85.4953 176° South 166 191 3,000 48 Level Chicago Center
Fri 05:08:47 PM 42.1617 -85.4808 166° South 164 189 3,100 -97 Climbing Chicago Center
Fri 05:09:49 PM 42.1192 -85.4636 163° South 161 185 2,800 -145 Descending Chicago Center
Fri 05:10:51 PM 42.0797 -85.4508 166° South 155 178 2,800  Level Chicago Center
Fri 05:11:53 PM 42.0592 -85.4844 231° Southwest 143 165 2,800 48 Level Chicago Center
Fri 05:12:55 PM 42.0850 -85.5142 320° Northwest 129 148 2,900  Climbing Chicago Center
Fri 05:13:57 PM 42.1169 -85.5289 341° North 123 142 2,800 -242 Descending Chicago Center
Fri 05:14:59 PM 42.1517 -85.5342 354° North 126 145 2,400 -484 Descending Chicago Center
Fri 05:16:01 PM 42.1814 -85.5397 352° North 118 136 1,800 -432 Descending Chicago Center
Fri 05:17:04 PM 42.2125 -85.5464 351° North 111 128 1,500 -286 Descending Chicago Center

Login

Don't have an account? Register now (free) for customized features, flight alerts, and more!